| time (UTC) | temp F | wind direction | speed knots | gust knots | rain 1hr in | rain 24hr in | rain mn in | humidity % | barometer mb |
| 20260903084111 | 65 | 235 | 1.7 | 5.2 | 0.00 | 0.00 | 0.00 | 62 | |
| 20260903081112 | 64 | 185 | 2.6 | 5.2 | 0.00 | 0.00 | 0.00 | 66 | |
| 20260903074112 | 64 | 242 | 1.7 | 5.2 | 0.00 | 0.00 | 0.00 | 67 | |
| 20260903071112 | 62 | 207 | 3.5 | 5.2 | 0.00 | 0.00 | 0.00 | 72 | |
| 20260903064111 | 62 | 194 | 2.6 | 4.3 | 0.00 | 0.00 | 0.00 | 69 | |
| 20260903061112 | 61 | 180 | 2.6 | 4.3 | 0.00 | 0.00 | 0.00 | 71 | |
| 20260903054111 | 60 | 176 | 2.6 | 5.2 | 0.00 | 0.00 | 0.00 | 72 | |
| 20260903051112 | 60 | 181 | 2.6 | 4.3 | 0.00 | 0.00 | 0.00 | 73 | |
| 20260903044111 | 60 | 189 | 2.6 | 5.2 | 0.00 | 0.00 | 0.00 | 72 | |
| 20260903041111 | 60 | 185 | 3.5 | 5.2 | 0.00 | 0.00 | 0.00 | 71 | |
| 20260903031112 | 63 | 213 | 2.6 | 5.2 | 0.00 | 0.00 | 0.00 | 61 | |
| 20260903021111 | 65 | 209 | 1.7 | 5.2 | 0.00 | 0.00 | 0.00 | 55 | |
| 20260903014111 | 64 | 331 | 0.9 | 1.7 | 0.00 | 0.00 | 0.00 | 56 | |
| 20260903011112 | 64 | 232 | 1.7 | 4.3 | 0.00 | 0.00 | 0.00 | 56 | |
| 20260903004112 | 64 | 7 | 0.9 | 2.6 | 0.00 | 0.00 | 0.00 | 57 | |
| 20260903001511 | 64 | 346 | 1.7 | 3.5 | 0.00 | 0.00 | 0.00 | 58 | |
| 20260902234112 | 64 | 338 | 2.6 | 5.2 | 0.00 | 0.00 | 0.00 | 60 | |
| 20260902224112 | 64 | 308 | 1.7 | 7.0 | 0.00 | 0.00 | 0.00 | 65 | |
| 20260902221112 | 64 | 272 | 1.7 | 5.2 | 0.00 | 0.00 | 0.00 | 64 | |
| 20260902214112 | 64 | 117 | 1.7 | 5.2 | 0.00 | 0.00 | 0.00 | 63 | |
| 20260902211112 | 64 | 40 | 2.6 | 3.5 | 0.00 | 0.00 | 0.00 | 64 | |
| 20260902204113 | 64 | 58 | 1.7 | 2.6 | 0.00 | 0.00 | 0.00 | 64 | |
| 20260902201112 | 64 | 77 | 0.9 | 1.7 | 0.00 | 0.00 | 0.00 | 64 | |
| 20260902194112 | 65 | 78 | 0.9 | 1.7 | 0.00 | 0.00 | 0.00 | 64 | |
| 20260902191112 | 65 | 181 | 1.7 | 2.6 | 0.00 | 0.00 | 0.00 | 64 | |
| 20260902184112 | 65 | 223 | 1.7 | 3.5 | 0.00 | 0.00 | 0.00 | 64 | |
| 20260902181112 | 65 | 340 | 2.6 | 8.7 | 0.00 | 0.00 | 0.00 | 63 | |
| 20260902174112 | 66 | 349 | 2.6 | 7.8 | 0.00 | 0.00 | 0.00 | 65 | |
| 20260902171112 | 67 | 352 | 1.7 | 6.1 | 0.00 | 0.00 | 0.00 | 63 | |
| 20260902164112 | 69 | 311 | 2.6 | 6.1 | 0.00 | 0.00 | 0.00 | 61 | |
| 20260902161112 | 70 | 303 | 3.5 | 7.8 | 0.00 | 0.00 | 0.00 | 60 | |
| 20260902154112 | 72 | 275 | 2.6 | 10.4 | 0.00 | 0.00 | 0.00 | 61 | |
| 20260902151112 | 72 | 246 | 3.5 | 11.3 | 0.00 | 0.00 | 0.00 | 60 | |
| 20260902144112 | 72 | 255 | 3.5 | 9.6 | 0.00 | 0.00 | 0.00 | 59 | |
| 20260902141112 | 71 | 309 | 2.6 | 7.8 | 0.00 | 0.00 | 0.00 | 61 | |
| 20260902134110 | 70 | 288 | 2.6 | 7.8 | 0.00 | 0.00 | 0.00 | 63 | |
| 20260902131112 | 70 | 243 | 2.6 | 7.8 | 0.00 | 0.00 | 0.00 | 64 | |
| 20260902124111 | 70 | 262 | 2.6 | 7.8 | 0.00 | 0.00 | 0.00 | 64 | |
| 20260902121112 | 71 | 234 | 3.5 | 9.6 | 0.00 | 0.00 | 0.00 | 64 | |
| 20260902114112 | 71 | 244 | 3.5 | 10.4 | 0.00 | 0.00 | 0.00 | 62 | |
| 20260902111112 | 69 | 239 | 3.5 | 7.0 | 0.00 | 0.00 | 0.00 | 61 | |
| 20260902104112 | 68 | 267 | 3.5 | 6.1 | 0.00 | 0.00 | 0.00 | 63 | |
| 20260902101112 | 67 | 244 | 3.5 | 7.0 | 0.00 | 0.00 | 0.00 | 64 | |
| 20260902094112 | 66 | 253 | 2.6 | 7.0 | 0.00 | 0.00 | 0.00 | 65 | |
| 20260902091111 | 65 | 245 | 3.5 | 6.1 | 0.00 | 0.00 | 0.00 | 68 |